Terminal Aerodrome Forecast
Issued by NWS

Home | Current Version | Previous Version | Text Only | Print | Product List | Glossary On
Versions: 1 2 3 4 5 6 7 8 9 10 11 12 13 14 15 16 17 18 19 20 21 22 23 24 25 26
000
FTUS43 KDVN 301737
TAFCID
TAF
KCID 301737Z 3018/0118 33008KT 6SM HZ SCT028 BKN250
     FM010000 01005KT 6SM HZ BKN250
     FM010300 06004KT 6SM HZ BKN250
     FM010800 09004KT 6SM BR BKN150 BKN250
     FM011200 09006KT 6SM BR BKN150 BKN250=

USA.gov is the U.S. government's official web portal to all federal, state and local government web resources and services.